eskimoz.fr alexa rank chart, eskimoz.fr alexa rank daily changes

eskimoz.fr alexa rank chart, eskimoz.fr alexa rank daily changes

eskimoz.fr
Actual rank:
242 668

RANK HISTORY

Date Rank Diff
2017/06/27 242 668 +143
2017/06/26 242 525 +13 553
2017/06/25 228 972 -323
2017/06/24 229 295 -3 413
2017/06/23 232 708 -9 192
2017/06/22 241 900 +10 207
2017/06/21 231 693 +4 433
2017/06/20 227 260 -6
2017/06/19 227 266 -2 719
2017/06/18 229 985 -4 763
2017/06/17 234 748 +9 606
2017/06/16 225 142 -2 402
2017/06/15 227 544 -15 439
2017/06/14 242 983 -144
2017/06/13 243 127 +7 073
2017/06/12 236 054 +6 617
2017/06/11 229 437 -1 180
2017/06/10 230 617 -6 157
2017/06/09 236 774 +2 140
2017/06/08 234 634 -5 067
2017/06/07 239 701 +1 644
2017/06/06 238 057 +4 321
2017/06/05 233 736 +5 476
2017/06/04 228 260 +6 187
2017/06/03 222 073 -2 371
2017/06/02 224 444 -2 314
2017/06/01 226 758 -2 304
2017/05/31 229 062 -4 883
2017/05/30 233 945 +3 372
2017/05/29 230 573 +3 926
2017/05/28 226 647 -3 745
2017/05/27 230 392 +1 081
2017/05/26 229 311 -2 455
2017/05/25 231 766 -1 530
2017/05/24 233 296 +2 224
2017/05/23 231 072 +6 619
2017/05/22 224 453 -4 863
2017/05/21 229 316 -1 255
2017/05/20 230 571 -4 670
2017/05/19 235 241 -77
2017/05/18 235 318 +776
2017/05/17 234 542 -6 968
2017/05/16 241 510 +6 686
2017/05/15 234 824 +2 334
2017/05/14 232 490 -2 761
2017/05/13 235 251 -1 730
2017/05/12 236 981 -9 800
2017/05/11 246 781 -6 302
2017/05/10 253 083 +6 517
2017/05/09 246 566 -6 990
2017/05/08 253 556 +6 973
2017/05/07 246 583 -2 577
2017/05/06 249 160 +3 687
2017/05/05 245 473 +11 522
2017/05/04 233 951 -4 355
2017/05/03 238 306 +6 313
2017/05/02 231 993 +1 381
2017/05/01 230 612 +1 969
2017/04/30 228 643 -173
2017/04/29 228 816 +1 866
2017/04/28 226 950

WIDGET FOR YOUR SITE

DOMAINS WITH THE NEAREST RANK

Domain Rank
choufdrama.com 242 663
youc.com 242 664
yuzhaiwu123.com 242 665
gobloggingtips.com 242 666
nookna.com 242 667
eskimoz.fr 242 668
unblockwebsite.net 242 669
camping.hr 242 670
boom.com 242 671
xn--o9jy06g0wf78i643dpwj.biz 242 672
tsj-dem.gob.ve 242 673

DOMAINS WITH THE NEAREST RANK BY TLD .fr

Domain Rank
espaceplaisir.fr 242 327
aerobuzz.fr 242 380
jemeformeaunumerique.fr 242 521
samsonite.fr 242 547
blog-nouvelles-technologies.fr 242 638
eskimoz.fr 242 668
artnet.fr 242 689
outiref.fr 242 697
vacancesespagne.fr 242 713
percentil.fr 242 804
makershop.fr 242 812